This is the latest recevied weather packets stored in our database for station/object AD0YN. If no packets are shown the sender has not sent any weather packets the latest 1 day(s).
| Time | Temp. | Humidity | Pressure | Rain* | Wind** | Luminosity | Snow |
|---|---|---|---|---|---|---|---|
| 1778051194 | 10° C | 56% | 1013.2 hPa | 0 mm | 0.45 m/s, 318° | 0 W/m² | - |
| 1778050891 | 9.44° C | 58% | 1013.3 hPa | 0 mm | 0 m/s | 0 W/m² | - |
| 1778050589 | 10° C | 59% | 1013.3 hPa | 0 mm | 0 m/s | 0 W/m² | - |
| 1778050285 | 10° C | 59% | 1013.5 hPa | 0 mm | 0 m/s | 0 W/m² | - |
| 1778049982 | 10° C | 57% | 1013.5 hPa | 0 mm | 0 m/s | 0 W/m² | - |
| 1778049678 | 10° C | 57% | 1013.6 hPa | 0 mm | 0 m/s | 0 W/m² | - |
| 1778049376 | 10° C | 58% | 1013.8 hPa | 0 mm | 0 m/s | 0 W/m² | - |
| 1778049073 | 10° C | 60% | 1013.7 hPa | 0 mm | 0 m/s | 0 W/m² | - |
| 1778048772 | 10° C | 58% | 1013.8 hPa | 0 mm | 0 m/s | 0 W/m² | - |
| 1778048468 | 10° C | 60% | 1013.7 hPa | 0 mm | 0 m/s | 0 W/m² | - |
| 1778048164 | 10.56° C | 54% | 1013.9 hPa | 0 mm | 0 m/s | 0 W/m² | - |
| 1778047862 | 10.56° C | 52% | 1013.9 hPa | 0 mm | 0.45 m/s, 243° | 0 W/m² | - |
| 1778047574 | 10.56° C | 55% | 1013.9 hPa | 0 mm | 0 m/s | 0 W/m² | - |
| 1778047257 | 10.56° C | 52% | 1014.1 hPa | 0 mm | 0.45 m/s, 266° | 0 W/m² | - |
| 1778046954 | 10.56° C | 57% | 1014.2 hPa | 0 mm | 0.45 m/s, 249° | 0 W/m² | - |
| 1778046651 | 10.56° C | 65% | 1014.1 hPa | 0 mm | 1.34 m/s, 271° | 0 W/m² | - |
| 1778046348 | 10.56° C | 62% | 1013.7 hPa | 0 mm | 0.45 m/s, 272° | 0 W/m² | - |
| 1778046043 | 10.56° C | 59% | 1013.7 hPa | 0 mm | 0.89 m/s, 295° | 0 W/m² | - |
| 1778045742 | 10.56° C | 69% | 1013.6 hPa | 0 mm | 0.45 m/s, 221° | 0 W/m² | - |
| 1778045440 | 10.56° C | 69% | 1013.7 hPa | 0 mm | 0.45 m/s, 238° | 0 W/m² | - |
| 1778045138 | 10.56° C | 68% | 1013.6 hPa | 0 mm | 0.45 m/s, 212° | 0 W/m² | - |
| 1778044835 | 10° C | 76% | 1013.7 hPa | 0 mm | 0.45 m/s, 188° | 0 W/m² | - |
| 1778044532 | 10° C | 76% | 1013.8 hPa | 0 mm | 0.89 m/s, 160° | 0 W/m² | - |
| 1778044229 | 10° C | 78% | 1013.7 hPa | 0 mm | 0 m/s | 0 W/m² | - |
| 1778043927 | 10° C | 78% | 1013.7 hPa | 0 mm | 0 m/s | 0 W/m² | - |
* Rain latest hour (hover to see other rain measurements)
** Current wind speed in m/s (hover to see current wind gust speed)